Time;durP1;ratioP1;P1;durP2;ratioP2;P2;SDS_P1;SDS_P2;PMS_P1;PMS_P2;Temp;Humidity;BMP_temperature;BMP_pressure;BME280_temperature;BME280_humidity;BME280_pressure;Samples;Min_cycle;Max_cycle;Signal;HPM_P1;HPM_P2
2022/10/28 00:02:11;;;;;;;6.93;4.85;;;15.10;99.90;;;;;;5054096;28;20176;-71
2022/10/28 00:04:36;;;;;;;8.75;5.43;;;15.20;99.90;;;;;;5049219;28;20390;-71
2022/10/28 00:07:02;;;;;;;6.88;5.22;;;15.20;99.90;;;;;;5043816;28;20212;-71
2022/10/28 00:09:28;;;;;;;10.15;5.72;;;15.20;99.90;;;;;;5060331;28;20345;-72
2022/10/28 00:11:53;;;;;;;6.22;5.43;;;15.20;99.90;;;;;;5051896;28;20235;-72
2022/10/28 00:14:19;;;;;;;12.48;5.40;;;15.20;99.90;;;;;;5047156;28;20277;-71
2022/10/28 00:16:44;;;;;;;11.00;6.10;;;15.20;99.90;;;;;;5044283;28;20179;-71
2022/10/28 00:19:11;;;;;;;8.55;4.45;;;15.20;99.90;;;;;;5054049;28;20735;-70
2022/10/28 00:21:39;;;;;;;10.57;5.25;;;15.20;99.90;;;;;;5048434;28;20220;-71
2022/10/28 00:24:06;;;;;;;8.63;5.50;;;15.20;99.90;;;;;;5044389;28;20213;-69
2022/10/28 00:26:35;;;;;;;8.32;5.13;;;15.20;99.90;;;;;;5061600;28;20262;-71
2022/10/28 00:29:05;;;;;;;9.73;5.45;;;15.20;99.90;;;;;;5049372;28;20182;-71
2022/10/28 00:31:32;;;;;;;9.10;5.70;;;15.30;99.90;;;;;;5046967;28;20214;-71
2022/10/28 00:33:59;;;;;;;10.02;5.20;;;15.30;99.90;;;;;;5042811;28;20219;-71
2022/10/28 00:36:27;;;;;;;9.15;5.72;;;15.30;99.90;;;;;;5053605;28;20199;-71
2022/10/28 00:38:54;;;;;;;12.90;5.65;;;15.20;99.90;;;;;;5044956;28;20207;-71
2022/10/28 00:41:32;;;;;;;6.78;5.15;;;15.10;99.90;;;;;;5045748;28;20172;-71
2022/10/28 00:44:00;;;;;;;6.50;4.53;;;15.20;99.90;;;;;;5058961;28;20204;-71
2022/10/28 00:46:52;;;;;;;10.15;5.15;;;15.20;99.90;;;;;;5048740;28;20261;-71
2022/10/28 00:49:27;;;;;;;10.32;5.10;;;15.20;99.90;;;;;;5046105;28;20207;-70
2022/10/28 00:51:57;;;;;;;6.28;4.93;;;15.20;99.90;;;;;;5054756;28;20213;-70
2022/10/28 00:54:23;;;;;;;6.28;5.22;;;15.20;99.90;;;;;;5053149;28;20211;-71
2022/10/28 00:56:54;;;;;;;6.13;4.97;;;15.20;99.90;;;;;;5045454;28;20646;-71
2022/10/28 00:59:31;;;;;;;9.02;4.95;;;15.20;99.90;;;;;;5058658;28;20225;-71
2022/10/28 01:01:57;;;;;;;6.15;4.53;;;15.20;99.90;;;;;;5054115;28;20187;-71
2022/10/28 01:04:22;;;;;;;7.15;5.22;;;15.20;99.90;;;;;;5047403;28;20280;-71
2022/10/28 01:06:49;;;;;;;11.40;5.25;;;15.20;99.90;;;;;;5043435;28;20214;-71
2022/10/28 01:09:15;;;;;;;8.85;5.00;;;15.20;99.90;;;;;;5058077;28;20252;-71
2022/10/28 01:11:43;;;;;;;8.70;5.03;;;15.20;99.90;;;;;;5053389;28;20215;-71
2022/10/28 01:14:26;;;;;;;10.30;5.07;;;15.20;99.90;;;;;;5044879;28;20200;-70
2022/10/28 01:17:18;;;;;;;6.75;5.10;;;15.30;99.90;;;;;;5055887;28;20176;-71
2022/10/28 01:20:11;;;;;;;6.43;5.00;;;15.30;99.90;;;;;;5043857;28;20210;-71
2022/10/28 01:22:47;;;;;;;10.68;4.97;;;15.30;99.90;;;;;;5051888;28;20200;-71
2022/10/28 01:25:13;;;;;;;7.53;5.13;;;15.30;99.90;;;;;;5052321;28;20214;-72
2022/10/28 01:28:06;;;;;;;7.88;5.00;;;15.20;99.90;;;;;;5055741;28;20219;-71
2022/10/28 01:30:58;;;;;;;8.95;5.18;;;15.20;99.90;;;;;;5037387;28;20221;-71
2022/10/28 01:33:30;;;;;;;6.10;5.15;;;15.20;99.90;;;;;;5052797;28;20214;-71
2022/10/28 01:36:09;;;;;;;7.68;5.22;;;15.20;99.90;;;;;;5040130;28;20238;-71
2022/10/28 01:38:42;;;;;;;11.07;6.10;;;15.20;99.90;;;;;;5052456;28;20246;-71
2022/10/28 01:41:17;;;;;;;12.30;5.80;;;15.10;99.90;;;;;;5042229;28;20181;-71
2022/10/28 01:43:53;;;;;;;9.30;6.30;;;15.20;99.90;;;;;;5059449;28;20310;-71
2022/10/28 01:46:27;;;;;;;11.15;6.15;;;15.10;99.90;;;;;;5049092;28;20568;-70
2022/10/28 01:48:58;;;;;;;10.30;5.68;;;15.10;99.90;;;;;;5043640;28;20216;-71
2022/10/28 01:51:36;;;;;;;7.75;5.75;;;15.10;99.90;;;;;;5044688;28;20233;-71
2022/10/28 01:54:05;;;;;;;8.95;5.45;;;15.10;99.90;;;;;;5050822;28;20257;-71
2022/10/28 01:56:36;;;;;;;12.05;6.50;;;15.10;99.90;;;;;;5046997;28;20273;-71
2022/10/28 01:59:04;;;;;;;10.27;5.95;;;15.10;99.90;;;;;;5050007;28;20199;-71
2022/10/28 02:01:30;;;;;;;8.30;5.50;;;15.00;99.90;;;;;;5056464;28;20207;-71
2022/10/28 02:03:56;;;;;;;9.10;5.55;;;15.10;99.90;;;;;;5045964;28;20227;-71
2022/10/28 02:06:26;;;;;;;10.65;5.57;;;15.00;99.90;;;;;;5044027;28;20218;-71
2022/10/28 02:09:16;;;;;;;9.73;6.47;;;15.00;99.90;;;;;;5054212;28;20203;-71
2022/10/28 02:11:55;;;;;;;9.70;5.80;;;15.00;99.90;;;;;;5052844;28;20799;-71
2022/10/28 02:14:44;;;;;;;8.50;5.90;;;15.00;99.90;;;;;;5048497;28;20282;-70
2022/10/28 02:17:25;;;;;;;11.75;5.80;;;15.10;99.90;;;;;;5058254;28;20172;-71
2022/10/28 02:20:12;;;;;;;8.27;5.93;;;15.10;99.90;;;;;;5048847;28;20229;-72
2022/10/28 02:22:48;;;;;;;8.82;5.35;;;15.00;99.90;;;;;;5044930;28;20219;-71
2022/10/28 02:25:34;;;;;;;8.55;5.30;;;15.00;99.90;;;;;;5047760;28;20583;-72
2022/10/28 02:28:09;;;;;;;8.63;5.13;;;14.90;99.90;;;;;;5048276;28;20219;-71
2022/10/28 02:30:59;;;;;;;10.35;5.80;;;14.90;99.90;;;;;;5055220;28;20226;-71
2022/10/28 02:33:30;;;;;;;7.07;5.07;;;14.90;99.90;;;;;;5055624;28;20796;-71
2022/10/28 02:36:12;;;;;;;10.48;5.40;;;14.90;99.90;;;;;;5044545;28;20266;-72
2022/10/28 02:38:50;;;;;;;10.77;6.05;;;14.90;99.90;;;;;;5043552;28;20214;-72
2022/10/28 02:41:23;;;;;;;11.40;5.85;;;14.90;99.90;;;;;;5083792;22;20317;-72
2022/10/28 02:43:53;;;;;;;8.52;5.82;;;14.80;99.90;;;;;;5113993;28;20241;-73
2022/10/28 02:46:20;;;;;;;11.50;5.65;;;14.80;99.90;;;;;;5105503;28;20284;-72
2022/10/28 02:48:51;;;;;;;10.27;5.40;;;14.80;99.90;;;;;;5116560;28;20213;-72
2022/10/28 02:51:21;;;;;;;8.55;5.25;;;14.80;99.90;;;;;;5122093;28;20217;-73
2022/10/28 02:54:06;;;;;;;9.45;6.05;;;14.80;99.90;;;;;;5123780;28;20273;-72
2022/10/28 02:56:36;;;;;;;9.10;5.57;;;14.80;99.90;;;;;;5125692;28;20277;-74
2022/10/28 02:59:02;;;;;;;9.43;5.82;;;14.80;99.90;;;;;;5124708;28;20181;-73
2022/10/28 03:01:27;;;;;;;8.85;5.78;;;14.70;99.90;;;;;;5123783;28;20217;-73
2022/10/28 03:03:53;;;;;;;9.20;5.22;;;14.70;99.90;;;;;;5126537;28;20213;-72
2022/10/28 03:06:19;;;;;;;10.52;5.57;;;14.70;99.90;;;;;;5108014;28;20266;-73
2022/10/28 03:08:44;;;;;;;7.65;5.53;;;14.70;99.90;;;;;;5125595;28;20219;-73
2022/10/28 03:11:10;;;;;;;11.05;5.75;;;14.70;99.90;;;;;;5115745;28;20218;-73
2022/10/28 03:13:35;;;;;;;12.10;5.65;;;14.60;99.90;;;;;;5118047;28;20188;-73
2022/10/28 03:16:01;;;;;;;9.95;5.43;;;14.60;99.90;;;;;;5110746;28;20210;-73
2022/10/28 03:18:26;;;;;;;8.23;5.65;;;14.60;99.90;;;;;;5090146;28;20206;-73
2022/10/28 03:20:52;;;;;;;9.68;5.22;;;14.60;99.90;;;;;;5115032;28;20209;-74
2022/10/28 03:23:17;;;;;;;10.73;6.10;;;14.60;99.90;;;;;;5124411;28;20178;-73
2022/10/28 03:25:43;;;;;;;8.15;5.22;;;14.60;99.90;;;;;;5126142;28;20199;-73
2022/10/28 03:28:08;;;;;;;7.90;5.63;;;14.60;99.90;;;;;;5124344;28;20214;-72
2022/10/28 03:30:34;;;;;;;7.53;5.82;;;14.50;99.90;;;;;;5127869;28;20259;-74
2022/10/28 03:32:59;;;;;;;11.68;5.63;;;14.60;99.90;;;;;;5124223;28;20198;-74
2022/10/28 03:35:25;;;;;;;9.85;5.35;;;14.50;99.90;;;;;;5126729;28;20181;-73
2022/10/28 03:37:50;;;;;;;10.30;5.70;;;14.50;99.90;;;;;;5125294;28;20193;-72
2022/10/28 03:40:16;;;;;;;12.23;6.25;;;14.50;99.90;;;;;;5111081;28;20281;-73
2022/10/28 03:42:42;;;;;;;10.55;5.93;;;14.50;99.90;;;;;;5126198;28;20212;-73
2022/10/28 03:45:08;;;;;;;11.40;6.28;;;14.50;99.90;;;;;;5123974;28;20297;-71
2022/10/28 03:47:34;;;;;;;9.48;5.85;;;14.50;99.90;;;;;;5127463;28;20224;-71
2022/10/28 03:50:00;;;;;;;7.95;5.47;;;14.50;99.90;;;;;;5123512;28;20231;-73
2022/10/28 03:52:26;;;;;;;7.78;5.45;;;14.40;99.90;;;;;;5127927;28;20202;-74
2022/10/28 03:54:51;;;;;;;9.05;5.60;;;14.40;99.90;;;;;;5110039;28;20311;-73
2022/10/28 03:57:17;;;;;;;8.88;5.20;;;14.40;99.90;;;;;;5101764;28;20202;-73
2022/10/28 03:59:42;;;;;;;11.32;5.80;;;14.40;99.90;;;;;;5107583;28;20213;-73
2022/10/28 04:02:08;;;;;;;8.75;5.50;;;14.40;99.90;;;;;;5113670;28;20198;-71
2022/10/28 04:04:33;;;;;;;7.80;5.75;;;14.40;99.90;;;;;;5096772;28;20192;-72
2022/10/28 04:06:59;;;;;;;8.63;5.55;;;14.40;99.90;;;;;;5087596;28;20757;-72
2022/10/28 04:09:24;;;;;;;11.90;6.35;;;14.40;99.90;;;;;;5106314;28;20209;-72
2022/10/28 04:11:50;;;;;;;11.82;6.28;;;14.30;99.90;;;;;;5102754;28;20202;-71
2022/10/28 04:14:15;;;;;;;8.30;5.63;;;14.30;99.90;;;;;;5088785;28;20183;-72
2022/10/28 04:16:41;;;;;;;10.48;6.35;;;14.20;99.90;;;;;;5105329;28;20571;-72
2022/10/28 04:19:06;;;;;;;9.63;6.10;;;14.20;99.90;;;;;;5112328;28;20206;-71
2022/10/28 04:21:32;;;;;;;14.82;6.18;;;14.20;99.90;;;;;;5112601;28;20220;-71
2022/10/28 04:23:57;;;;;;;9.68;6.47;;;14.20;99.90;;;;;;5113405;28;20211;-72
2022/10/28 04:26:23;;;;;;;11.40;6.30;;;14.20;99.90;;;;;;5119986;28;20676;-71
2022/10/28 04:28:49;;;;;;;8.77;6.15;;;14.20;99.90;;;;;;5113805;28;20561;-73
2022/10/28 04:31:14;;;;;;;11.50;6.13;;;14.20;99.90;;;;;;5101930;28;20621;-72
2022/10/28 04:33:40;;;;;;;9.68;5.63;;;14.20;99.90;;;;;;5085689;28;20217;-72
2022/10/28 04:36:06;;;;;;;10.82;6.47;;;14.20;99.90;;;;;;5082456;28;20213;-71
2022/10/28 04:38:31;;;;;;;9.77;6.18;;;14.20;99.90;;;;;;5103335;28;20679;-72
2022/10/28 04:40:57;;;;;;;12.50;6.50;;;14.20;99.90;;;;;;5101435;28;20320;-72
2022/10/28 04:43:23;;;;;;;13.38;6.38;;;14.20;99.90;;;;;;5104303;28;20293;-73
2022/10/28 04:45:48;;;;;;;8.65;6.07;;;14.20;99.90;;;;;;5111882;28;20209;-72
2022/10/28 04:48:14;;;;;;;13.88;7.00;;;14.20;99.90;;;;;;5083670;28;20322;-71
2022/10/28 04:50:40;;;;;;;10.23;6.13;;;14.20;99.90;;;;;;5103078;28;20240;-73
2022/10/28 04:53:05;;;;;;;10.00;6.30;;;14.20;99.90;;;;;;5099661;28;20328;-71
2022/10/28 04:55:31;;;;;;;10.90;6.38;;;14.20;99.90;;;;;;5105966;28;20214;-72
2022/10/28 04:57:59;;;;;;;10.73;5.95;;;14.20;99.90;;;;;;5081856;28;20209;-72
2022/10/28 05:00:26;;;;;;;10.77;6.35;;;14.20;99.90;;;;;;5102235;28;20714;-72
2022/10/28 05:02:52;;;;;;;11.18;6.78;;;14.20;99.90;;;;;;5080913;28;20248;-72
2022/10/28 05:05:17;;;;;;;9.50;6.22;;;14.20;99.90;;;;;;5099132;28;20267;-72
2022/10/28 05:07:43;;;;;;;11.00;6.85;;;14.20;99.90;;;;;;5084408;28;20182;-71
2022/10/28 05:10:10;;;;;;;13.02;6.28;;;14.20;99.90;;;;;;5099428;28;20220;-72
2022/10/28 05:12:36;;;;;;;8.68;6.40;;;14.20;99.90;;;;;;5112239;28;20698;-72
2022/10/28 05:15:03;;;;;;;8.95;6.82;;;14.20;99.90;;;;;;5103635;28;20210;-72
2022/10/28 05:17:28;;;;;;;10.43;6.38;;;14.20;99.90;;;;;;5099815;28;20312;-72
2022/10/28 05:19:54;;;;;;;11.77;6.53;;;14.10;99.90;;;;;;5082988;28;20697;-71
2022/10/28 05:22:19;;;;;;;10.57;5.88;;;14.10;99.90;;;;;;5101525;28;20206;-72
2022/10/28 05:24:45;;;;;;;16.70;7.15;;;14.10;99.90;;;;;;5106560;28;20620;-71
2022/10/28 05:27:11;;;;;;;10.95;6.13;;;14.10;99.90;;;;;;5105314;28;20267;-71
2022/10/28 05:29:37;;;;;;;8.55;6.28;;;14.20;99.90;;;;;;5084844;28;20626;-72
2022/10/28 05:32:02;;;;;;;9.00;6.32;;;14.10;99.90;;;;;;5099276;28;20201;-73
2022/10/28 05:34:28;;;;;;;8.20;6.43;;;14.10;99.90;;;;;;5079850;28;21088;-71
2022/10/28 05:36:53;;;;;;;10.30;6.10;;;14.10;99.90;;;;;;5081279;28;20291;-72
2022/10/28 05:39:19;;;;;;;8.02;6.38;;;14.10;99.90;;;;;;5101181;28;20219;-72
2022/10/28 05:41:44;;;;;;;11.93;6.72;;;14.10;99.90;;;;;;5101283;28;20765;-72
2022/10/28 05:44:10;;;;;;;8.32;5.80;;;14.10;99.90;;;;;;5098698;28;20743;-71
2022/10/28 05:46:35;;;;;;;20.80;7.07;;;14.10;99.90;;;;;;5102184;28;20181;-72
2022/10/28 05:49:01;;;;;;;13.88;6.38;;;14.10;99.90;;;;;;5104044;28;20201;-72
2022/10/28 05:51:27;;;;;;;9.63;6.20;;;14.10;99.90;;;;;;5085772;28;20205;-72
2022/10/28 05:53:53;;;;;;;11.32;6.80;;;14.10;99.90;;;;;;5102054;28;20198;-73
2022/10/28 05:56:19;;;;;;;12.20;6.80;;;14.20;99.90;;;;;;5102916;28;20253;-72
2022/10/28 05:58:44;;;;;;;12.45;6.68;;;14.20;99.90;;;;;;5118309;28;20268;-72
2022/10/28 06:01:10;;;;;;;10.00;6.80;;;14.20;99.90;;;;;;5121749;28;20229;-72
2022/10/28 06:03:35;;;;;;;15.20;6.65;;;14.30;99.90;;;;;;5103904;28;20206;-72
2022/10/28 06:06:01;;;;;;;9.95;6.60;;;14.30;99.90;;;;;;5121774;28;20206;-72
2022/10/28 06:08:27;;;;;;;14.65;6.65;;;14.40;99.90;;;;;;5121957;28;20198;-73
2022/10/28 06:10:53;;;;;;;9.73;6.18;;;14.40;99.90;;;;;;5108172;28;20213;-71
2022/10/28 06:13:19;;;;;;;10.82;5.85;;;14.40;99.90;;;;;;5111350;28;20195;-72
2022/10/28 06:15:53;;;;;;;10.27;6.50;;;14.40;99.90;;;;;;5093642;28;20206;-72
2022/10/28 06:18:19;;;;;;;15.77;6.63;;;14.40;99.90;;;;;;5121241;28;20208;-74
2022/10/28 06:20:59;;;;;;;11.90;6.28;;;14.40;99.90;;;;;;5122734;28;20209;-72
2022/10/28 06:23:26;;;;;;;11.65;6.75;;;14.50;99.90;;;;;;5124491;28;20240;-73
2022/10/28 06:25:56;;;;;;;7.32;5.57;;;14.60;99.90;;;;;;5125230;28;20183;-74
2022/10/28 06:28:22;;;;;;;13.32;6.30;;;14.70;99.90;;;;;;5123121;28;20220;-72
2022/10/28 06:30:47;;;;;;;11.85;6.13;;;14.90;99.90;;;;;;5124591;28;20217;-72
2022/10/28 06:33:13;;;;;;;12.38;6.07;;;14.90;99.90;;;;;;5123394;28;20210;-72
2022/10/28 06:35:38;;;;;;;8.48;5.63;;;14.90;99.90;;;;;;5125104;28;20208;-72
2022/10/28 06:38:04;;;;;;;11.73;6.05;;;14.90;99.90;;;;;;5124006;28;20170;-73
2022/10/28 06:40:29;;;;;;;15.65;6.05;;;15.00;99.90;;;;;;5126412;28;20228;-73
2022/10/28 06:43:02;;;;;;;9.75;5.85;;;15.10;99.90;;;;;;5102143;28;20275;-72
2022/10/28 06:45:28;;;;;;;9.27;5.75;;;15.10;99.90;;;;;;5123179;28;20245;-73
2022/10/28 06:47:59;;;;;;;10.82;6.10;;;15.10;99.90;;;;;;5108503;28;20205;-71
2022/10/28 06:50:25;;;;;;;11.13;5.82;;;15.20;99.90;;;;;;5127843;28;20206;-72
2022/10/28 06:52:53;;;;;;;9.65;6.45;;;15.30;99.90;;;;;;5105284;28;20198;-73
2022/10/28 06:55:19;;;;;;;10.60;5.57;;;15.40;99.90;;;;;;5115986;28;20201;-73
2022/10/28 06:57:45;;;;;;;14.60;6.68;;;15.40;99.90;;;;;;5116145;28;20224;-71
2022/10/28 07:00:15;;;;;;;12.05;5.20;;;15.50;99.90;;;;;;5094071;28;20758;-73
2022/10/28 07:02:40;;;;;;;8.77;5.78;;;15.30;99.90;;;;;;5111262;28;20205;-73
2022/10/28 07:05:06;;;;;;;10.68;5.65;;;15.30;99.90;;;;;;5112460;28;20176;-71
2022/10/28 07:07:32;;;;;;;7.95;5.38;;;15.60;99.90;;;;;;5120655;28;20210;-73
2022/10/28 07:09:58;;;;;;;10.60;6.00;;;16.00;99.90;;;;;;5118238;28;20214;-74
2022/10/28 07:12:23;;;;;;;9.32;5.68;;;16.60;99.90;;;;;;5122747;28;20301;-73
2022/10/28 07:14:49;;;;;;;8.95;5.70;;;17.20;99.90;;;;;;5124500;28;20205;-74
2022/10/28 07:17:14;;;;;;;9.80;4.75;;;17.60;99.90;;;;;;5123763;28;20190;-72
2022/10/28 07:19:40;;;;;;;10.13;4.93;;;17.60;99.90;;;;;;5122158;28;20656;-72
2022/10/28 07:22:06;;;;;;;10.60;5.18;;;17.60;99.90;;;;;;5102368;28;20560;-72
2022/10/28 07:24:31;;;;;;;10.05;4.93;;;18.00;99.90;;;;;;5126918;28;20315;-74
2022/10/28 07:26:57;;;;;;;11.05;6.28;;;18.10;99.90;;;;;;5121515;28;20229;-71
2022/10/28 07:29:22;;;;;;;9.38;4.78;;;18.50;99.90;;;;;;5098786;28;20252;-73
2022/10/28 07:31:48;;;;;;;14.52;4.90;;;18.90;99.90;;;;;;5114331;28;20209;-72
2022/10/28 07:34:13;;;;;;;8.10;4.82;;;18.80;99.90;;;;;;5090726;28;20202;-72
2022/10/28 07:36:39;;;;;;;9.32;4.95;;;19.30;99.90;;;;;;5105796;28;20208;-73
2022/10/28 07:39:04;;;;;;;9.07;4.85;;;19.20;99.90;;;;;;5107989;28;20206;-71
2022/10/28 07:41:30;;;;;;;7.22;4.85;;;19.60;99.90;;;;;;5107577;28;20221;-71
2022/10/28 07:43:55;;;;;;;10.65;6.07;;;20.20;99.90;;;;;;5099223;28;20186;-71
2022/10/28 07:46:21;;;;;;;10.45;4.88;;;20.50;99.90;;;;;;5083800;28;20301;-72
2022/10/28 07:48:46;;;;;;;8.85;4.97;;;20.40;99.90;;;;;;5105154;28;20205;-71
2022/10/28 07:51:14;;;;;;;7.82;4.43;;;20.50;99.90;;;;;;5102461;28;20218;-71
2022/10/28 07:53:40;;;;;;;8.25;4.75;;;21.10;99.90;;;;;;5083408;28;20217;-72
2022/10/28 07:56:09;;;;;;;6.57;4.68;;;21.50;99.90;;;;;;5082588;28;20183;-71
2022/10/28 07:58:35;;;;;;;8.80;4.40;;;21.80;99.90;;;;;;5100608;28;20217;-72
2022/10/28 08:01:02;;;;;;;8.52;4.65;;;21.50;99.90;;;;;;5083098;28;20241;-72
2022/10/28 08:03:28;;;;;;;9.15;4.20;;;21.40;99.90;;;;;;5100915;28;20239;-73
2022/10/28 08:06:04;;;;;;;8.05;4.32;;;21.90;99.90;;;;;;5101477;28;20218;-72
2022/10/28 08:08:30;;;;;;;9.93;4.85;;;22.30;99.90;;;;;;5084659;28;20216;-71
2022/10/28 08:10:56;;;;;;;8.48;4.55;;;22.60;99.90;;;;;;5090800;28;20210;-72
2022/10/28 08:13:21;;;;;;;12.80;4.40;;;22.90;99.90;;;;;;5105646;28;20246;-73
2022/10/28 08:15:52;;;;;;;9.38;4.60;;;22.80;99.90;;;;;;5097478;28;20895;-71
2022/10/28 08:18:17;;;;;;;7.65;4.38;;;22.10;99.90;;;;;;5085100;28;20284;-71
2022/10/28 08:20:43;;;;;;;7.20;4.20;;;21.80;99.90;;;;;;5093735;28;20334;-71
2022/10/28 08:23:08;;;;;;;8.10;4.20;;;21.20;99.90;;;;;;5098586;28;20205;-71
2022/10/28 08:25:34;;;;;;;11.07;4.60;;;20.90;99.90;;;;;;5084749;28;20177;-71
2022/10/28 08:27:59;;;;;;;6.00;4.15;;;20.50;99.90;;;;;;5086622;28;20203;-71
2022/10/28 08:30:25;;;;;;;8.63;4.32;;;20.10;99.90;;;;;;5100679;28;20222;-71
2022/10/28 08:32:50;;;;;;;10.27;4.55;;;20.00;99.90;;;;;;5085732;28;20213;-71
2022/10/28 08:35:16;;;;;;;10.25;5.38;;;20.00;99.90;;;;;;5101834;28;20170;-72
2022/10/28 08:37:44;;;;;;;11.80;5.05;;;20.10;99.90;;;;;;5099712;28;20197;-71
2022/10/28 08:42:58;;;;;;;15.82;8.55;;;19.60;99.90;;;;;;5070666;28;20219;-72
2022/10/28 08:45:41;;;;;;;12.80;6.53;;;19.30;99.90;;;;;;5071752;28;20259;-71
2022/10/28 08:48:30;;;;;;;10.98;5.40;;;19.10;99.90;;;;;;5077809;28;20218;-72
2022/10/28 08:51:04;;;;;;;8.82;4.20;;;19.30;99.90;;;;;;5080109;28;20221;-71
2022/10/28 08:53:43;;;;;;;11.98;6.82;;;19.60;99.90;;;;;;5072464;28;20237;-71
2022/10/28 08:56:30;;;;;;;10.52;5.32;;;20.10;99.90;;;;;;5069377;28;20233;-72
2022/10/28 08:58:59;;;;;;;16.52;6.78;;;20.40;99.90;;;;;;5074168;28;20190;-71
2022/10/28 09:01:45;;;;;;;13.20;5.57;;;20.80;99.90;;;;;;5076313;28;20896;-71
2022/10/28 09:04:38;;;;;;;12.30;5.28;;;21.30;99.90;;;;;;5068548;28;20210;-71
2022/10/28 09:07:04;;;;;;;8.70;5.38;;;21.70;99.90;;;;;;5045964;28;20215;-71
2022/10/28 09:09:30;;;;;;;14.27;8.15;;;21.50;99.90;;;;;;5079251;28;20206;-71
2022/10/28 09:12:30;;;;;;;11.98;5.68;;;21.60;99.90;;;;;;5069833;28;20267;-71
2022/10/28 09:14:55;;;;;;;9.77;3.88;;;21.70;99.90;;;;;;5073307;28;20739;-71
2022/10/28 09:17:50;;;;;;;9.25;4.78;;;21.10;99.90;;;;;;5078526;28;20206;-71
2022/10/28 09:20:46;;;;;;;12.30;6.32;;;21.00;99.90;;;;;;5070598;28;20866;-71
2022/10/28 09:23:21;;;;;;;10.38;4.32;;;20.90;99.90;;;;;;5071046;28;20183;-72
2022/10/28 09:26:01;;;;;;;8.00;3.80;;;20.80;99.90;;;;;;5077512;28;20193;-71
2022/10/28 09:28:49;;;;;;;8.02;3.70;;;20.90;99.90;;;;;;5072592;28;20207;-71
2022/10/28 09:31:34;;;;;;;6.97;4.13;;;20.90;99.90;;;;;;5069975;28;20222;-72
2022/10/28 09:34:07;;;;;;;11.95;4.15;;;21.10;99.90;;;;;;5076043;28;20283;-71
2022/10/28 09:36:41;;;;;;;8.82;4.03;;;21.10;99.90;;;;;;5078008;28;20634;-71
2022/10/28 09:39:15;;;;;;;9.52;3.67;;;21.30;99.90;;;;;;5074107;28;20210;-71
2022/10/28 09:41:42;;;;;;;10.25;4.40;;;21.80;99.90;;;;;;5077192;28;20278;-72
2022/10/28 09:44:29;;;;;;;10.02;3.88;;;21.80;99.90;;;;;;5077764;28;20179;-72
2022/10/28 09:46:59;;;;;;;10.15;5.35;;;21.60;99.90;;;;;;5075487;28;20600;-71
2022/10/28 09:49:29;;;;;;;6.25;3.83;;;21.30;99.90;;;;;;5080251;28;20214;-71
2022/10/28 09:52:00;;;;;;;9.82;4.15;;;21.00;99.90;;;;;;5079230;28;20218;-71
2022/10/28 09:54:33;;;;;;;13.27;4.13;;;20.90;99.90;;;;;;5074023;28;20698;-71
2022/10/28 09:56:59;;;;;;;6.65;3.65;;;21.00;99.90;;;;;;5075929;28;20306;-71
2022/10/28 09:59:25;;;;;;;8.57;3.33;;;21.00;99.90;;;;;;5080655;28;20178;-72
2022/10/28 10:01:50;;;;;;;7.03;3.55;;;21.30;99.90;;;;;;5080362;28;20199;-71
2022/10/28 10:04:19;;;;;;;7.30;3.72;;;21.40;99.90;;;;;;5072537;28;20204;-71
2022/10/28 10:06:49;;;;;;;8.18;3.47;;;21.10;99.90;;;;;;5079878;28;20953;-72
2022/10/28 10:09:30;;;;;;;7.35;3.58;;;21.30;99.90;;;;;;5080810;28;20354;-71
2022/10/28 10:12:05;;;;;;;9.05;3.90;;;21.30;99.90;;;;;;5054969;28;20211;-71
2022/10/28 10:14:41;;;;;;;9.02;4.05;;;21.30;99.90;;;;;;5078951;28;20212;-71
2022/10/28 10:17:36;;;;;;;7.75;4.15;;;21.10;99.90;;;;;;5077972;28;20170;-71
2022/10/28 10:20:07;;;;;;;10.68;3.78;;;21.20;99.90;;;;;;5068565;28;20572;-71
2022/10/28 10:22:42;;;;;;;10.05;4.50;;;21.30;99.90;;;;;;5060486;28;20223;-71
2022/10/28 10:25:16;;;;;;;6.03;3.47;;;21.10;99.90;;;;;;5075599;28;20207;-71
2022/10/28 10:27:50;;;;;;;6.32;3.63;;;21.30;99.90;;;;;;5077171;28;20209;-70
2022/10/28 10:30:33;;;;;;;6.78;3.92;;;21.40;99.90;;;;;;5050360;28;20349;-71
2022/10/28 10:33:01;;;;;;;8.35;3.72;;;21.50;99.90;;;;;;5058680;28;20705;-72
2022/10/28 10:35:31;;;;;;;10.52;4.13;;;21.50;99.90;;;;;;5060779;28;20691;-71
2022/10/28 10:38:00;;;;;;;8.05;3.45;;;21.70;99.90;;;;;;5074132;28;20640;-71
2022/10/28 10:40:58;;;;;;;12.32;4.22;;;21.80;99.90;;;;;;5077386;28;20210;-71
2022/10/28 10:43:31;;;;;;;5.63;3.38;;;21.80;99.90;;;;;;5032773;28;20244;-72
2022/10/28 10:46:02;;;;;;;7.07;3.90;;;21.60;99.90;;;;;;5078979;28;20270;-71
2022/10/28 10:48:31;;;;;;;7.47;3.60;;;21.70;99.90;;;;;;5077301;28;20241;-71
2022/10/28 10:50:57;;;;;;;11.63;4.00;;;21.80;99.90;;;;;;5078998;28;20267;-71
2022/10/28 10:53:24;;;;;;;8.27;3.60;;;21.90;99.90;;;;;;5073043;28;20180;-71
2022/10/28 10:55:56;;;;;;;8.80;3.85;;;21.80;99.90;;;;;;5059662;28;20174;-71
2022/10/28 10:58:25;;;;;;;10.90;4.10;;;21.90;99.90;;;;;;5063202;28;20293;-71
2022/10/28 11:00:54;;;;;;;8.15;3.38;;;22.00;99.90;;;;;;5078866;28;20229;-71
2022/10/28 11:03:26;;;;;;;7.25;3.08;;;22.20;99.90;;;;;;5070525;28;20208;-71
2022/10/28 11:05:56;;;;;;;7.43;3.33;;;22.40;99.90;;;;;;5062720;28;20214;-71
2022/10/28 11:08:42;;;;;;;9.93;3.20;;;22.50;99.90;;;;;;5080004;28;20171;-71
2022/10/28 11:11:40;;;;;;;11.90;3.20;;;22.60;99.90;;;;;;5072118;28;20708;-71
2022/10/28 11:14:21;;;;;;;8.48;3.20;;;22.50;99.90;;;;;;5048949;28;20236;-71
2022/10/28 11:17:01;;;;;;;5.45;2.80;;;22.60;99.90;;;;;;5078447;28;20194;-71
2022/10/28 11:19:34;;;;;;;11.13;3.60;;;22.60;99.90;;;;;;5073895;28;20200;-71
2022/10/28 11:22:15;;;;;;;11.38;3.63;;;22.60;99.90;;;;;;5074368;28;20252;-71
2022/10/28 11:25:06;;;;;;;5.43;2.78;;;22.60;99.90;;;;;;5076051;28;20723;-71
2022/10/28 11:27:50;;;;;;;6.57;3.28;;;22.60;99.90;;;;;;5074504;28;20216;-71
2022/10/28 11:30:20;;;;;;;12.75;3.90;;;22.60;99.90;;;;;;5048261;28;20370;-71
2022/10/28 11:33:12;;;;;;;7.45;3.80;;;22.70;99.90;;;;;;5078092;28;20564;-71
2022/10/28 11:35:47;;;;;;;9.75;3.40;;;22.80;99.90;;;;;;5079253;28;20213;-71
2022/10/28 11:38:30;;;;;;;9.00;4.03;;;22.80;99.90;;;;;;5069997;28;20183;-72
2022/10/28 11:41:09;;;;;;;5.65;3.25;;;22.90;99.90;;;;;;5060393;28;20288;-71
2022/10/28 11:43:57;;;;;;;8.40;3.55;;;22.90;99.90;;;;;;5078341;28;20214;-71
2022/10/28 11:46:35;;;;;;;8.98;3.15;;;23.00;99.90;;;;;;5070870;28;20647;-71
2022/10/28 11:49:37;;;;;;;8.30;3.85;;;22.80;99.90;;;;;;5076054;28;20279;-71
2022/10/28 11:52:12;;;;;;;9.60;3.55;;;22.80;99.90;;;;;;5076015;28;20301;-71
2022/10/28 11:54:41;;;;;;;11.50;3.67;;;22.70;99.90;;;;;;5058145;28;20222;-71
2022/10/28 11:57:17;;;;;;;8.50;2.95;;;22.70;99.90;;;;;;5070752;28;20203;-71
2022/10/28 12:00:14;;;;;;;12.20;4.07;;;22.70;99.90;;;;;;5078722;28;20244;-71
2022/10/28 12:02:57;;;;;;;8.40;3.28;;;22.60;99.90;;;;;;5076998;28;20303;-71
2022/10/28 12:05:42;;;;;;;5.70;2.92;;;22.50;99.90;;;;;;5049617;28;20244;-71
2022/10/28 12:08:28;;;;;;;9.13;3.30;;;22.60;99.90;;;;;;5074687;28;20183;-72
2022/10/28 12:11:14;;;;;;;11.40;3.22;;;22.70;99.90;;;;;;5070940;28;20564;-71
2022/10/28 12:13:50;;;;;;;12.95;3.72;;;22.80;99.90;;;;;;5077598;28;20805;-72
2022/10/28 12:16:34;;;;;;;12.02;3.25;;;22.90;99.90;;;;;;5076131;28;20203;-72
2022/10/28 12:19:07;;;;;;;9.18;3.75;;;23.10;99.90;;;;;;5074549;28;20588;-71
2022/10/28 12:21:36;;;;;;;10.30;3.50;;;23.10;99.90;;;;;;5074104;28;20214;-72
2022/10/28 12:24:05;;;;;;;9.93;4.15;;;23.10;99.90;;;;;;5073700;28;20203;-72
2022/10/28 12:26:39;;;;;;;9.93;3.42;;;23.00;99.90;;;;;;5077004;28;20245;-72
2022/10/28 12:29:29;;;;;;;9.18;3.75;;;22.90;99.90;;;;;;5069976;28;20183;-71
2022/10/28 12:32:10;;;;;;;9.52;3.28;;;22.90;99.90;;;;;;5054541;28;20270;-69
2022/10/28 12:35:12;;;;;;;8.07;2.92;;;22.90;99.90;;;;;;5076623;28;20233;-71
2022/10/28 12:38:09;;;;;;;5.80;3.45;;;22.90;99.90;;;;;;5061222;28;20217;-71
2022/10/28 12:40:38;;;;;;;9.93;3.92;;;22.90;99.90;;;;;;5077068;28;20539;-71
2022/10/28 12:43:13;;;;;;;15.07;4.55;;;22.90;99.90;;;;;;5076149;28;20432;-71
2022/10/28 12:45:41;;;;;;;7.00;2.90;;;22.90;99.90;;;;;;5075950;28;20250;-71
2022/10/28 12:48:21;;;;;;;7.88;4.03;;;22.70;99.90;;;;;;5070949;28;20283;-70
2022/10/28 12:51:04;;;;;;;9.43;3.40;;;22.80;99.90;;;;;;5075295;28;20237;-72
2022/10/28 12:53:44;;;;;;;9.18;3.10;;;22.80;99.90;;;;;;5072914;28;20207;-71
2022/10/28 12:56:39;;;;;;;7.38;3.40;;;22.70;99.90;;;;;;5069864;28;20174;-71
2022/10/28 12:59:17;;;;;;;6.72;2.90;;;22.60;99.90;;;;;;5065481;28;20649;-71
2022/10/28 13:01:45;;;;;;;10.27;4.38;;;22.60;99.90;;;;;;5078893;28;20256;-71
2022/10/28 13:04:12;;;;;;;10.25;3.88;;;22.70;99.90;;;;;;5068777;28;20724;-71
2022/10/28 13:06:46;;;;;;;9.45;3.95;;;22.70;99.90;;;;;;5071289;28;20210;-72
2022/10/28 13:09:50;;;;;;;13.70;3.42;;;22.70;99.90;;;;;;5077197;28;21541;-71